Hector International Airport
KFAR : now visible

Airfield :











YOU CAN JOIN US ON...

 
LOGIN :

Register | Disclaimer

   EN    FR    IT 

 









Legend :    VFR   Marginal VFR   IFR   Intensive IFR   Very Intensive IFR
Visi :
Ceiling :
>= 8 km
>= 3000ft
5 to 8 km
1000 to 3000 ft
1500m to 5 km
500 to 1000 ft
800 to 1500m
200 to 500 ft
< 800m
< 200 ft
Symbols :   Thunderstorms  Fog  Heavy snow  Heavy precipitations  Wind > 20 kt







- Airport Elevation : 902 ft
- IATA code : FAR


KFAR - Hector International

CURRENT METAR :
  • 181853Z 20010KT 10SM CLR 26/19 A2962 RMK AO2 SLP025 T02560194

EXPIRED METARs :
  • 181753Z 19012KT 10SM CLR 24/19 A2963 RMK AO2 SLP031 T02390189 10250 20194 56003
  • 181653Z 19011KT 10SM CLR 24/18 A2964 RMK AO2 SLP034 T02390178

TAF KFAR
Valid from the 18 at 18:00 until the 19 at 18:00 UTC


181743Z 1818/1918 20011KT P6SM FEW050 BKN130
FM182100 24013KT P6SM BKN060
FM190200 VRB05KT P6SM BKN120
FM191600 30005KT P6SM SCT050 BKN150
KZMP FIR / North America



MET'MAP, your aeronautical weather chart ! - Copyright ORBIFLY December 2007 - Disclaimer

ORBIFLY MET'MAP TEAM :

Programming & Development : Alexandra Zaïnal
Concept & Development : Baudouin d'Aumeries
Co-Development & Prog : Marc-Olivier Méhu
Technical & hardware support : Manuel Goepfert

Contact : metmap@orbifly.com




SOURCES & CREDITS :

   NOAA       Earth
Advisory